createdAt,value
2018-12-12T00:00:01.798Z,64.23
2018-12-12T00:02:28.727Z,51.50
2018-12-12T00:04:55.654Z,61.47
2018-12-12T00:07:22.721Z,59.13
2018-12-12T00:09:49.432Z,64.43
2018-12-12T00:12:16.252Z,63.10
2018-12-12T00:14:42.980Z,57.33
2018-12-12T00:17:09.686Z,64.53
2018-12-12T00:19:36.505Z,73.83
2018-12-12T00:22:03.374Z,63.40
2018-12-12T00:24:30.093Z,60.87
2018-12-12T00:26:57.150Z,59.93
2018-12-12T00:29:23.870Z,52.53
2018-12-12T00:31:50.603Z,51.17
2018-12-12T00:34:17.459Z,56.50
2018-12-12T00:36:44.157Z,57.60
2018-12-12T00:39:10.927Z,57.40
2018-12-12T00:41:37.701Z,51.83
2018-12-12T00:44:04.414Z,56.67
2018-12-12T00:46:31.427Z,52.90
2018-12-12T00:48:58.512Z,61.70
2018-12-12T00:51:25.224Z,66.43
2018-12-12T00:53:52.122Z,69.97
2018-12-12T00:56:18.896Z,75.63
2018-12-12T00:58:45.812Z,160.83
2018-12-12T01:01:12.624Z,96.50
2018-12-12T01:03:39.378Z,82.17
2018-12-12T01:06:06.094Z,76.20
2018-12-12T01:08:32.959Z,90.10
2018-12-12T01:11:06.226Z,94.00
2018-12-12T01:13:32.945Z,72.37
2018-12-12T01:15:59.660Z,84.13
2018-12-12T01:18:26.591Z,68.23
2018-12-12T01:20:53.305Z,73.87
2018-12-12T01:23:20.017Z,75.20
2018-12-12T01:25:46.769Z,71.73
2018-12-12T01:28:13.487Z,65.13
2018-12-12T01:30:40.245Z,59.73
2018-12-12T01:33:07.029Z,55.43
2018-12-12T01:35:33.751Z,55.20
2018-12-12T01:38:00.496Z,59.20
2018-12-12T01:40:27.429Z,60.27
2018-12-12T01:42:54.159Z,53.70
2018-12-12T01:45:20.892Z,55.20
2018-12-12T01:47:47.678Z,54.07
2018-12-12T01:50:14.631Z,56.80
2018-12-12T01:52:41.422Z,59.80
2018-12-12T01:55:08.191Z,56.47
2018-12-12T01:57:34.997Z,51.47
2018-12-12T02:00:01.713Z,53.73
2018-12-12T02:02:28.477Z,54.33
2018-12-12T02:04:55.188Z,46.97
2018-12-12T02:07:21.911Z,52.87
2018-12-12T02:09:48.897Z,104.80
2018-12-12T02:12:15.713Z,90.43
2018-12-12T02:14:42.576Z,83.20
2018-12-12T02:17:09.501Z,67.20
2018-12-12T02:19:36.220Z,54.13
2018-12-12T02:22:03.001Z,46.77
2018-12-12T02:24:29.756Z,45.83
2018-12-12T02:26:56.564Z,44.47
2018-12-12T02:29:23.282Z,40.47
2018-12-12T02:31:50.047Z,37.87
2018-12-12T02:34:16.896Z,35.83
2018-12-12T02:36:43.841Z,33.20
2018-12-12T02:39:10.611Z,36.40
2018-12-12T02:41:37.321Z,34.70
2018-12-12T02:44:04.049Z,31.07
2018-12-12T02:46:30.834Z,34.10
2018-12-12T02:48:57.597Z,29.27
2018-12-12T02:51:24.325Z,32.50
2018-12-12T02:53:51.099Z,35.90
2018-12-12T02:56:17.844Z,33.63
2018-12-12T02:58:44.643Z,32.33
2018-12-12T03:01:11.430Z,30.57
2018-12-12T03:03:38.489Z,35.90
2018-12-12T03:06:05.371Z,31.47
2018-12-12T03:08:32.129Z,37.77
2018-12-12T03:10:58.860Z,37.10
2018-12-12T03:13:25.575Z,34.43
2018-12-12T03:15:52.360Z,35.40
2018-12-12T03:18:19.072Z,35.00
2018-12-12T03:20:45.889Z,34.93
2018-12-12T03:23:12.640Z,34.93
2018-12-12T03:25:39.363Z,31.67
2018-12-12T03:28:06.075Z,32.67
2018-12-12T03:30:32.845Z,36.07
2018-12-12T03:32:59.571Z,36.37
2018-12-12T03:35:26.473Z,37.87
2018-12-12T03:37:53.577Z,36.53
2018-12-12T03:40:20.335Z,34.57
2018-12-12T03:42:47.470Z,38.63
2018-12-12T03:45:14.248Z,35.97
2018-12-12T03:47:40.986Z,33.73
2018-12-12T03:50:07.714Z,39.00
2018-12-12T03:52:34.512Z,32.57
2018-12-12T03:55:01.286Z,36.00
2018-12-12T03:57:28.017Z,43.03
2018-12-12T03:59:54.776Z,36.70
2018-12-12T04:02:21.485Z,43.07
2018-12-12T04:04:48.342Z,43.23
2018-12-12T04:07:15.124Z,44.37
2018-12-12T04:09:41.829Z,36.83
2018-12-12T04:12:08.676Z,39.13
2018-12-12T04:14:35.450Z,45.17
2018-12-12T04:17:02.298Z,49.03
2018-12-12T04:19:29.030Z,51.93
2018-12-12T04:21:55.870Z,50.00
2018-12-12T04:24:24.587Z,45.80
2018-12-12T04:26:51.478Z,49.47
2018-12-12T04:29:18.270Z,55.47
2018-12-12T04:31:44.967Z,49.07
2018-12-12T04:34:11.683Z,47.10
2018-12-12T04:36:38.441Z,44.83
2018-12-12T04:39:05.388Z,43.33
2018-12-12T04:41:32.108Z,37.73
2018-12-12T04:43:58.886Z,40.20
2018-12-12T04:46:25.599Z,41.33
2018-12-12T04:48:52.315Z,46.53
2018-12-12T04:51:19.093Z,40.07
2018-12-12T04:53:45.809Z,44.00
2018-12-12T04:56:12.658Z,47.00
2018-12-12T04:58:39.407Z,40.40
2018-12-12T05:01:06.300Z,38.63
2018-12-12T05:03:33.034Z,38.73
2018-12-12T05:05:59.933Z,36.60
2018-12-12T05:08:26.705Z,39.63
2018-12-12T05:10:53.469Z,33.23
2018-12-12T05:13:20.290Z,41.00
2018-12-12T05:15:47.204Z,34.13
2018-12-12T05:18:13.936Z,37.33
2018-12-12T05:20:40.684Z,40.07
2018-12-12T05:23:07.432Z,38.40
2018-12-12T05:25:34.135Z,37.37
2018-12-12T05:28:00.921Z,37.27
2018-12-12T05:30:27.628Z,38.10
2018-12-12T05:32:54.367Z,37.17
2018-12-12T05:35:21.137Z,42.80
2018-12-12T05:37:51.811Z,46.17
2018-12-12T05:40:16.796Z,46.83
2018-12-12T05:42:43.673Z,40.33
2018-12-12T05:45:10.396Z,45.97
2018-12-12T05:47:37.117Z,45.07
2018-12-12T05:50:04.186Z,48.83
2018-12-12T05:52:30.946Z,56.27
2018-12-12T05:54:57.697Z,56.00
2018-12-12T05:57:24.565Z,60.00
2018-12-12T05:59:51.416Z,55.00
2018-12-12T06:02:18.805Z,59.83
2018-12-12T06:04:45.860Z,53.10
2018-12-12T06:07:12.596Z,65.07
2018-12-12T06:09:39.432Z,56.53
2018-12-12T06:12:06.246Z,64.13
2018-12-12T06:14:32.975Z,62.63
2018-12-12T06:16:59.692Z,70.43
2018-12-12T06:19:26.497Z,67.40
2018-12-12T06:21:53.299Z,62.87
2018-12-12T06:24:20.148Z,68.63
2018-12-12T06:26:46.930Z,75.43
2018-12-12T06:29:13.737Z,76.23
2018-12-12T06:31:40.627Z,67.83
2018-12-12T06:34:07.445Z,69.63
2018-12-12T06:36:34.159Z,76.10
2018-12-12T06:39:01.100Z,71.17
2018-12-12T06:41:27.852Z,72.00
2018-12-12T06:43:54.605Z,72.03
2018-12-12T06:46:21.325Z,76.63
2018-12-12T06:48:48.128Z,73.27
2018-12-12T06:51:14.966Z,75.17
2018-12-12T06:53:41.698Z,84.47
2018-12-12T06:56:08.457Z,80.00
2018-12-12T06:58:35.183Z,87.23
2018-12-12T07:01:02.025Z,89.50
2018-12-12T07:03:28.820Z,78.43
2018-12-12T07:05:55.564Z,89.10
2018-12-12T07:08:22.510Z,88.03
2018-12-12T07:10:49.254Z,78.93
2018-12-12T07:13:16.004Z,79.07
2018-12-12T07:15:42.732Z,77.73
2018-12-12T07:18:09.508Z,84.03
2018-12-12T07:20:36.238Z,86.43
2018-12-12T07:23:02.995Z,95.87
2018-12-12T07:25:29.800Z,92.60
2018-12-12T07:27:56.514Z,87.23
2018-12-12T07:30:23.281Z,92.80
2018-12-12T07:32:50.088Z,73.70
2018-12-12T07:35:16.808Z,81.47
2018-12-12T07:37:43.601Z,80.17
2018-12-12T07:40:10.373Z,85.33
2018-12-12T07:42:37.091Z,104.30
2018-12-12T07:45:03.827Z,114.13
2018-12-12T07:47:30.639Z,114.10
2018-12-12T07:49:57.377Z,117.70
2018-12-12T07:52:24.147Z,117.23
2018-12-12T07:54:50.928Z,118.67
2018-12-12T07:57:17.770Z,104.67
2018-12-12T07:59:44.598Z,103.23
2018-12-12T08:02:11.445Z,102.60
2018-12-12T08:04:38.160Z,97.67
2018-12-12T08:07:04.880Z,104.03
2018-12-12T08:09:31.675Z,114.87
2018-12-12T08:11:58.417Z,101.30
2018-12-12T08:14:25.166Z,92.97
2018-12-12T08:16:51.963Z,98.70
2018-12-12T08:19:18.718Z,95.07
2018-12-12T08:21:45.485Z,82.73
2018-12-12T08:24:12.266Z,85.10
2018-12-12T08:26:38.988Z,87.43
2018-12-12T08:29:05.776Z,85.20
2018-12-12T08:31:32.573Z,87.80
2018-12-12T08:33:59.297Z,91.37
2018-12-12T08:36:26.009Z,110.20
2018-12-12T08:38:52.815Z,106.27
2018-12-12T08:41:19.614Z,102.63
2018-12-12T08:43:46.343Z,92.10
2018-12-12T08:46:13.310Z,91.10
2018-12-12T08:48:40.039Z,93.93
2018-12-12T08:51:07.075Z,78.97
2018-12-12T08:53:33.919Z,78.67
2018-12-12T08:56:00.656Z,81.23
2018-12-12T08:58:27.499Z,82.83
2018-12-12T09:00:54.325Z,84.93
2018-12-12T09:03:21.106Z,89.27
2018-12-12T09:05:47.874Z,95.03
2018-12-12T09:08:14.664Z,99.40
2018-12-12T09:10:41.497Z,89.57
2018-12-12T09:13:08.954Z,90.50
2018-12-12T09:15:35.738Z,92.67
2018-12-12T09:18:02.588Z,90.07
2018-12-12T09:20:29.358Z,91.67
2018-12-12T09:22:56.116Z,102.10
2018-12-12T09:25:22.857Z,92.67
2018-12-12T09:27:49.605Z,82.73
2018-12-12T09:30:16.404Z,102.40
2018-12-12T09:32:43.136Z,99.13
2018-12-12T09:35:10.013Z,89.00
2018-12-12T09:37:36.769Z,94.20
2018-12-12T09:40:03.715Z,105.83
2018-12-12T09:42:32.379Z,81.77
2018-12-12T09:44:59.327Z,91.67
2018-12-12T09:47:26.187Z,89.90
2018-12-12T09:49:52.931Z,86.23
2018-12-12T09:52:21.004Z,92.27
2018-12-12T09:54:47.761Z,92.90
2018-12-12T09:57:14.567Z,90.30
2018-12-12T09:59:41.381Z,107.57
2018-12-12T10:02:08.277Z,90.33
2018-12-12T10:04:34.997Z,90.20
2018-12-12T10:07:01.864Z,96.97
2018-12-12T10:09:28.684Z,107.23
2018-12-12T10:11:55.419Z,87.13
2018-12-12T10:14:22.189Z,90.63
2018-12-12T10:16:48.948Z,93.20
2018-12-12T10:19:15.692Z,88.33
2018-12-12T10:21:42.461Z,80.40
2018-12-12T10:24:09.331Z,96.43
2018-12-12T10:26:36.291Z,90.37
2018-12-12T10:29:03.053Z,92.07
2018-12-12T10:31:29.764Z,85.70
2018-12-12T10:33:56.976Z,96.63
2018-12-12T10:36:23.890Z,89.43
2018-12-12T10:38:50.741Z,74.67
2018-12-12T10:41:17.647Z,78.33
2018-12-12T10:43:44.514Z,73.90
2018-12-12T10:46:11.986Z,72.43
2018-12-12T10:48:38.729Z,70.63
2018-12-12T10:51:05.630Z,77.23
2018-12-12T10:53:32.661Z,77.27
2018-12-12T10:55:59.436Z,72.87
2018-12-12T10:58:26.207Z,65.13
2018-12-12T11:00:58.840Z,55.67
2018-12-12T11:03:31.273Z,66.37
2018-12-12T11:05:57.999Z,51.90
2018-12-12T11:08:25.725Z,59.77
2018-12-12T11:10:52.496Z,58.57
2018-12-12T11:13:19.305Z,64.97
2018-12-12T11:15:46.059Z,63.77
2018-12-12T11:18:12.834Z,65.33
2018-12-12T11:20:39.570Z,68.90
2018-12-12T11:23:06.299Z,69.60
2018-12-12T11:25:33.066Z,67.90
2018-12-12T11:27:59.812Z,87.63
2018-12-12T11:30:26.531Z,83.10
2018-12-12T11:32:53.311Z,56.93
2018-12-12T11:35:20.037Z,52.47
2018-12-12T11:37:46.777Z,44.57
2018-12-12T11:40:13.534Z,54.53
2018-12-12T11:42:40.316Z,57.13
2018-12-12T11:45:07.052Z,53.47
2018-12-12T11:47:33.813Z,50.33
2018-12-12T11:50:00.527Z,57.00
2018-12-12T11:52:27.323Z,64.73
2018-12-12T11:54:54.114Z,66.03
2018-12-12T11:57:21.284Z,59.13
2018-12-12T11:59:48.010Z,64.27
2018-12-12T12:02:14.802Z,56.70
2018-12-12T12:04:41.539Z,58.93
2018-12-12T12:07:08.269Z,71.60
2018-12-12T12:09:35.058Z,57.93
2018-12-12T12:12:01.790Z,71.30
2018-12-12T12:14:28.601Z,77.27
2018-12-12T12:16:55.602Z,80.50
2018-12-12T12:19:22.348Z,69.93
2018-12-12T12:21:49.074Z,79.27
2018-12-12T12:24:15.826Z,88.53
2018-12-12T12:26:42.688Z,84.87
2018-12-12T12:29:09.538Z,87.13
2018-12-12T12:31:36.487Z,89.80
2018-12-12T12:34:03.426Z,84.73
2018-12-12T12:36:30.697Z,79.33
2018-12-12T12:38:57.493Z,80.97
2018-12-12T12:41:24.224Z,83.27
2018-12-12T12:43:50.943Z,77.17
2018-12-12T12:46:17.708Z,93.07
2018-12-12T12:48:44.416Z,92.13
2018-12-12T12:51:11.118Z,97.23
2018-12-12T12:53:37.872Z,99.30
2018-12-12T12:56:04.614Z,99.70
2018-12-12T12:58:31.349Z,96.40
2018-12-12T13:00:58.096Z,86.80
2018-12-12T13:03:25.002Z,92.27
2018-12-12T13:05:51.957Z,99.83
2018-12-12T13:08:18.715Z,82.40
2018-12-12T13:10:45.764Z,95.33
2018-12-12T13:13:12.671Z,100.37
2018-12-12T13:15:39.672Z,98.27
2018-12-12T13:18:06.509Z,87.50
2018-12-12T13:20:33.721Z,80.87
2018-12-12T13:23:00.544Z,92.40
2018-12-12T13:25:27.297Z,80.30
2018-12-12T13:27:54.062Z,85.23
2018-12-12T13:30:20.821Z,101.80
2018-12-12T13:32:47.567Z,87.37
2018-12-12T13:35:14.285Z,85.97
2018-12-12T13:37:41.057Z,85.30
2018-12-12T13:40:07.778Z,90.27
2018-12-12T13:42:34.904Z,93.60
2018-12-12T13:45:01.664Z,89.73
2018-12-12T13:47:28.400Z,96.43
2018-12-12T13:49:55.281Z,102.93
2018-12-12T13:52:22.203Z,95.63
2018-12-12T13:54:48.920Z,88.30
2018-12-12T13:57:15.636Z,93.93
2018-12-12T13:59:42.411Z,93.97
2018-12-12T14:02:09.248Z,108.73
2018-12-12T14:04:35.958Z,111.77
2018-12-12T14:07:02.740Z,105.83
2018-12-12T14:09:29.458Z,116.20
2018-12-12T14:11:56.178Z,122.27
2018-12-12T14:14:22.929Z,106.63
2018-12-12T14:16:49.673Z,100.97
2018-12-12T14:19:16.412Z,117.50
2018-12-12T14:21:43.167Z,134.90
2018-12-12T14:24:09.894Z,132.80
2018-12-12T14:26:36.616Z,110.53
2018-12-12T14:29:03.390Z,119.00
2018-12-12T14:31:30.109Z,106.53
2018-12-12T14:33:56.822Z,91.37
2018-12-12T14:36:23.628Z,93.47
2018-12-12T14:38:50.457Z,110.50
2018-12-12T14:41:17.192Z,102.07
2018-12-12T14:43:43.954Z,92.80
2018-12-12T14:46:10.670Z,86.53
2018-12-12T14:48:37.748Z,95.23
2018-12-12T14:51:04.510Z,94.57
2018-12-12T14:53:31.266Z,108.50
2018-12-12T14:55:58.037Z,106.37
2018-12-12T14:58:24.882Z,102.63
2018-12-12T15:00:51.616Z,106.17
2018-12-12T15:03:18.341Z,97.67
2018-12-12T15:05:45.112Z,99.40
2018-12-12T15:08:11.844Z,102.07
2018-12-12T15:10:38.955Z,113.83
2018-12-12T15:13:05.719Z,106.67
2018-12-12T15:15:32.478Z,118.03
2018-12-12T15:17:59.217Z,131.40
2018-12-12T15:20:25.964Z,118.87
2018-12-12T15:22:52.683Z,113.73
2018-12-12T15:25:19.402Z,101.83
2018-12-12T15:27:46.156Z,106.20
2018-12-12T15:30:12.874Z,107.43
2018-12-12T15:32:39.964Z,104.60
2018-12-12T15:35:06.720Z,103.00
2018-12-12T15:37:33.652Z,108.87
2018-12-12T15:40:00.362Z,103.83
2018-12-12T15:42:27.136Z,101.50
2018-12-12T15:44:53.996Z,106.07
2018-12-12T15:47:20.709Z,115.67
2018-12-12T15:49:47.501Z,117.27
2018-12-12T15:52:14.220Z,108.90
2018-12-12T15:54:41.298Z,102.73
2018-12-12T15:57:08.071Z,101.53
2018-12-12T15:59:34.942Z,103.03
2018-12-12T16:02:01.993Z,102.60
2018-12-12T16:04:28.895Z,142.27
2018-12-12T16:06:55.658Z,124.87
2018-12-12T16:09:22.550Z,125.63
2018-12-12T16:11:49.293Z,94.07
2018-12-12T16:14:17.432Z,99.37
2018-12-12T16:16:44.247Z,117.33
2018-12-12T16:21:56.787Z,118.70
2018-12-12T16:24:23.483Z,88.07
2018-12-12T16:26:50.218Z,93.33
2018-12-12T16:29:16.963Z,79.33
2018-12-12T16:31:44.055Z,72.13
2018-12-12T16:34:10.789Z,74.53
2018-12-12T16:36:37.561Z,91.07
2018-12-12T16:39:05.947Z,85.53
2018-12-12T16:41:32.676Z,86.67
2018-12-12T16:43:59.451Z,97.17
2018-12-12T16:46:26.161Z,88.40
2018-12-12T16:48:52.870Z,93.60
2018-12-12T16:51:19.849Z,96.67
2018-12-12T16:53:46.606Z,110.60
2018-12-12T16:56:13.439Z,94.33
2018-12-12T16:58:40.199Z,89.57
2018-12-12T17:01:06.922Z,77.70
2018-12-12T17:03:33.659Z,83.20
2018-12-12T17:06:00.427Z,82.03
2018-12-12T17:08:27.147Z,80.43
2018-12-12T17:10:53.869Z,77.73
2018-12-12T17:13:20.627Z,89.47
2018-12-12T17:15:47.345Z,99.63
2018-12-12T17:18:14.194Z,102.80
2018-12-12T17:20:41.075Z,104.23
2018-12-12T17:23:07.803Z,99.33
2018-12-12T17:25:34.649Z,117.07
2018-12-12T17:28:01.484Z,107.50
2018-12-12T17:30:28.213Z,101.87
2018-12-12T17:32:54.921Z,98.73
2018-12-12T17:35:21.793Z,92.13
2018-12-12T17:37:48.651Z,107.47
2018-12-12T17:40:15.379Z,95.43
2018-12-12T17:42:42.130Z,99.00
2018-12-12T17:45:08.848Z,91.43
2018-12-12T17:47:35.579Z,89.23
2018-12-12T17:50:02.350Z,85.20
2018-12-12T17:52:29.063Z,98.53
2018-12-12T17:54:55.793Z,101.57
2018-12-12T17:57:22.584Z,111.40
2018-12-12T17:59:49.409Z,105.20
2018-12-12T18:02:16.249Z,109.93
2018-12-12T18:04:43.156Z,119.60
2018-12-12T18:07:09.876Z,117.27
2018-12-12T18:09:36.684Z,110.43
2018-12-12T18:12:03.453Z,113.73
2018-12-12T18:14:30.176Z,107.07
2018-12-12T18:16:56.884Z,107.07
2018-12-12T18:19:23.652Z,111.27
2018-12-12T18:21:50.374Z,129.10
2018-12-12T18:24:17.096Z,120.67
2018-12-12T18:26:43.860Z,128.70
2018-12-12T18:29:10.829Z,126.53
2018-12-12T18:31:37.544Z,127.73
2018-12-12T18:34:04.294Z,147.53
2018-12-12T18:36:31.022Z,137.70
2018-12-12T18:38:57.744Z,140.87
2018-12-12T18:41:24.616Z,116.97
2018-12-12T18:43:51.339Z,116.33
2018-12-12T18:46:18.063Z,117.40
2018-12-12T18:48:44.826Z,119.43
2018-12-12T18:51:11.545Z,110.63
2018-12-12T18:53:38.268Z,98.80
2018-12-12T18:56:05.069Z,97.33
2018-12-12T18:58:31.814Z,107.33
2018-12-12T19:00:58.549Z,113.43
2018-12-12T19:03:25.316Z,94.00
2018-12-12T19:05:52.097Z,100.80
2018-12-12T19:08:18.867Z,105.93
2018-12-12T19:10:45.607Z,107.97
2018-12-12T19:13:12.325Z,89.90
2018-12-12T19:15:39.049Z,86.00
2018-12-12T19:18:05.864Z,82.33
2018-12-12T19:20:32.628Z,92.77
2018-12-12T19:22:59.512Z,86.50
2018-12-12T19:25:26.263Z,96.67
2018-12-12T19:27:53.005Z,91.67
2018-12-12T19:30:19.745Z,94.07
2018-12-12T19:32:46.518Z,88.17
2018-12-12T19:35:13.257Z,101.43
2018-12-12T19:37:40.004Z,86.27
2018-12-12T19:40:06.798Z,94.97
2018-12-12T19:42:33.584Z,94.53
2018-12-12T19:45:00.292Z,93.00
2018-12-12T19:47:27.061Z,80.20
2018-12-12T19:49:53.836Z,83.77
2018-12-12T19:52:20.604Z,90.00
2018-12-12T19:54:47.398Z,78.30
2018-12-12T19:57:14.140Z,79.97
2018-12-12T19:59:41.280Z,87.20
2018-12-12T20:02:08.043Z,89.77
2018-12-12T20:04:34.786Z,98.33
2018-12-12T20:07:01.701Z,82.40
2018-12-12T20:09:28.710Z,84.77
2018-12-12T20:11:55.554Z,101.83
2018-12-12T20:14:22.414Z,98.23
2018-12-12T20:16:49.184Z,90.83
2018-12-12T20:19:15.912Z,98.33
2018-12-12T20:21:42.634Z,87.47
2018-12-12T20:24:09.390Z,96.37
2018-12-12T20:26:36.116Z,83.40
2018-12-12T20:29:02.843Z,87.70
2018-12-12T20:31:29.626Z,85.40
2018-12-12T20:33:56.426Z,82.80
2018-12-12T20:36:23.193Z,74.90
2018-12-12T20:38:49.962Z,75.80
2018-12-12T20:41:16.854Z,67.03
2018-12-12T20:43:43.779Z,71.73
2018-12-12T20:46:10.541Z,71.30
2018-12-12T20:48:37.383Z,70.70
2018-12-12T20:51:04.127Z,52.97
2018-12-12T20:53:30.898Z,63.53
2018-12-12T20:55:57.621Z,56.00
2018-12-12T20:58:24.341Z,56.13
2018-12-12T21:00:51.106Z,53.97
2018-12-12T21:03:18.042Z,55.03
2018-12-12T21:05:44.807Z,53.10
2018-12-12T21:08:11.723Z,52.93
2018-12-12T21:10:38.459Z,42.13
2018-12-12T21:13:05.173Z,47.53
2018-12-12T21:15:31.939Z,46.87
2018-12-12T21:17:58.790Z,53.53
2018-12-12T21:20:25.632Z,43.70
2018-12-12T21:22:52.413Z,45.40
2018-12-12T21:25:19.134Z,49.97
2018-12-12T21:27:45.854Z,46.23
2018-12-12T21:30:17.273Z,46.30
2018-12-12T21:32:41.380Z,53.33
2018-12-12T21:35:08.097Z,61.10
2018-12-12T21:37:34.860Z,61.50
2018-12-12T21:40:01.631Z,58.23
2018-12-12T21:42:28.351Z,61.93
2018-12-12T21:44:55.316Z,58.90
2018-12-12T21:47:22.051Z,69.97
2018-12-12T21:49:48.768Z,54.17
2018-12-12T21:52:15.616Z,73.50
2018-12-12T21:54:42.339Z,70.00
2018-12-12T21:57:09.051Z,49.53
2018-12-12T21:59:35.836Z,42.00
2018-12-12T22:02:02.593Z,48.00
2018-12-12T22:04:29.433Z,53.40
2018-12-12T22:06:56.365Z,46.13
2018-12-12T22:09:23.096Z,51.93
2018-12-12T22:11:49.976Z,51.37
2018-12-12T22:14:16.912Z,58.67
2018-12-12T22:16:43.640Z,45.93
2018-12-12T22:19:10.432Z,49.80
2018-12-12T22:21:37.537Z,58.60
2018-12-12T22:24:04.395Z,63.07
2018-12-12T22:26:31.126Z,51.50
2018-12-12T22:28:57.890Z,46.33
2018-12-12T22:31:24.606Z,45.37
2018-12-12T22:33:51.311Z,52.73
2018-12-12T22:36:18.055Z,45.20
2018-12-12T22:38:44.802Z,42.77
2018-12-12T22:41:11.575Z,44.63
2018-12-12T22:43:38.376Z,44.90
2018-12-12T22:46:05.110Z,47.17
2018-12-12T22:48:31.824Z,50.77
2018-12-12T22:50:58.622Z,53.33
2018-12-12T22:53:25.342Z,60.83
2018-12-12T22:55:52.067Z,69.20
2018-12-12T22:58:18.839Z,51.47
2018-12-12T23:00:47.666Z,61.57
2018-12-12T23:03:14.419Z,57.13
2018-12-12T23:05:41.198Z,64.00
2018-12-12T23:08:08.171Z,60.27
2018-12-12T23:10:35.006Z,57.70
2018-12-12T23:13:01.960Z,48.93
2018-12-12T23:15:28.800Z,61.40
2018-12-12T23:17:55.541Z,48.17
2018-12-12T23:20:22.325Z,52.63
2018-12-12T23:22:49.051Z,58.53
2018-12-12T23:25:15.786Z,48.80
2018-12-12T23:27:42.578Z,54.00
2018-12-12T23:30:09.449Z,64.47
2018-12-12T23:32:36.186Z,73.27
2018-12-12T23:35:02.987Z,60.97
2018-12-12T23:37:29.721Z,79.23
2018-12-12T23:39:56.564Z,76.97
2018-12-12T23:42:23.352Z,69.83
2018-12-12T23:44:50.092Z,64.57
2018-12-12T23:47:16.838Z,71.87
2018-12-12T23:49:43.577Z,74.77
2018-12-12T23:52:10.311Z,66.20
2018-12-12T23:54:37.062Z,64.90
2018-12-12T23:57:03.836Z,67.87
2018-12-12T23:59:30.556Z,57.50
